Time;durP1;ratioP1;P1;durP2;ratioP2;P2;SDS_P1;SDS_P2;PMS_P1;PMS_P2;Temp;Humidity;BMP_temperature;BMP_pressure;BME280_temperature;BME280_humidity;BME280_pressure;Samples;Min_cycle;Max_cycle;Signal;HPM_P1;HPM_P2
2021/04/01 00:01:53;;;;;;;;;;;;;;;18.83;62.07;101571.41;5089567;28;1339;-73
2021/04/01 00:04:19;;;;;;;;;;;;;;;18.82;61.96;101578.47;5089471;28;956;-72
2021/04/01 00:06:46;;;;;;;;;;;;;;;18.81;62.01;101571.50;5054804;28;1910;-72
2021/04/01 00:09:12;;;;;;;;;;;;;;;18.82;61.96;101570.56;5089749;28;1146;-71
2021/04/01 00:11:38;;;;;;;;;;;;;;;18.81;61.91;101573.28;5089535;28;1318;-72
2021/04/01 00:14:05;;;;;;;;;;;;;;;18.83;61.91;101568.78;5089375;28;1146;-71
2021/04/01 00:16:31;;;;;;;;;;;;;;;18.81;61.94;101566.22;5071397;28;1298;-73
2021/04/01 00:18:58;;;;;;;;;;;;;;;18.80;61.85;101561.84;5089798;28;1019;-73
2021/04/01 00:21:25;;;;;;;;;;;;;;;18.79;61.81;101565.41;5089616;28;1342;-73
2021/04/01 00:23:51;;;;;;;;;;;;;;;18.79;61.80;101569.81;5089471;28;1079;-72
2021/04/01 00:26:17;;;;;;;;;;;;;;;18.78;61.91;101562.84;5071062;28;1953;-72
2021/04/01 00:28:43;;;;;;;;;;;;;;;18.79;61.74;101557.50;5089816;28;1046;-72
2021/04/01 00:31:10;;;;;;;;;;;;;;;18.78;61.78;101555.78;5089119;28;1280;-73
2021/04/01 00:33:36;;;;;;;;;;;;;;;18.78;61.84;101555.78;5089273;28;980;-72
2021/04/01 00:36:02;;;;;;;;;;;;;;;18.79;61.83;101560.13;5089433;28;1248;-73
2021/04/01 00:38:28;;;;;;;;;;;;;;;18.77;61.71;101554.06;5089060;28;1147;-73
2021/04/01 00:40:55;;;;;;;;;;;;;;;18.77;61.66;101550.56;5089081;28;884;-72
2021/04/01 00:43:21;;;;;;;;;;;;;;;18.76;61.74;101554.13;5089028;28;1098;-72
2021/04/01 00:45:48;;;;;;;;;;;;;;;18.76;61.55;101552.34;5088984;28;1927;-73
2021/04/01 00:48:14;;;;;;;;;;;;;;;18.76;61.75;101555.00;5070641;28;1241;-72
2021/04/01 00:50:41;;;;;;;;;;;;;;;18.77;61.74;101562.00;5089176;28;1034;-72
2021/04/01 00:53:07;;;;;;;;;;;;;;;18.76;61.64;101555.00;5088687;28;1648;-72
2021/04/01 00:55:33;;;;;;;;;;;;;;;18.75;61.60;101540.09;5109652;28;1278;-72
2021/04/01 00:58:01;;;;;;;;;;;;;;;18.75;61.50;101539.25;5109277;28;1340;-72
2021/04/01 01:00:30;;;;;;;;;;;;;;;18.74;61.61;101534.88;5109034;28;1250;-73
2021/04/01 01:02:57;;;;;;;;;;;;;;;18.74;61.66;101535.72;5109317;28;1189;-72
2021/04/01 01:05:24;;;;;;;;;;;;;;;18.77;61.53;101532.97;5090644;28;1976;-72
2021/04/01 01:07:50;;;;;;;;;;;;;;;18.74;61.64;101525.19;5108751;28;1341;-72
2021/04/01 01:10:18;;;;;;;;;;;;;;;18.74;61.67;101529.59;5109983;28;1134;-73
2021/04/01 01:12:45;;;;;;;;;;;;;;;18.76;61.43;101527.72;5109609;28;1318;-72
2021/04/01 01:15:13;;;;;;;;;;;;;;;18.75;61.65;101526.91;5091296;28;1047;-72
2021/04/01 01:17:39;;;;;;;;;;;;;;;18.76;61.59;101525.94;5109033;28;1243;-72
2021/04/01 01:20:08;;;;;;;;;;;;;;;18.73;61.32;101527.88;5074238;28;1153;-71
2021/04/01 01:22:35;;;;;;;;;;;;;;;18.74;61.68;101526.94;5090921;28;1340;-71
2021/04/01 01:25:01;;;;;;;;;;;;;;;18.75;61.41;101512.84;5090610;28;1371;-71
2021/04/01 01:27:28;;;;;;;;;;;;;;;18.74;61.51;101517.25;5109218;28;1980;-71
2021/04/01 01:29:54;;;;;;;;;;;;;;;18.74;61.60;101511.97;5108911;28;1077;-70
2021/04/01 01:32:21;;;;;;;;;;;;;;;18.72;61.50;101511.19;5108647;28;1319;-70
2021/04/01 01:34:47;;;;;;;;;;;;;;;18.72;61.55;101511.19;5108616;28;1157;-71
2021/04/01 01:37:14;;;;;;;;;;;;;;;18.73;61.53;101514.66;5073755;28;1260;-72
2021/04/01 01:39:41;;;;;;;;;;;;;;;18.71;61.56;101500.69;5073746;28;1377;-71
2021/04/01 01:42:07;;;;;;;;;;;;;;;18.69;61.49;101500.78;5108731;28;1317;-71
2021/04/01 01:44:33;;;;;;;;;;;;;;;18.73;61.51;101501.47;5109020;28;877;-71
2021/04/01 01:47:00;;;;;;;;;;;;;;;18.72;61.52;101495.38;5089784;28;2045;-70
2021/04/01 01:49:26;;;;;;;;;;;;;;;18.71;61.54;101503.34;5090435;28;1247;-70
2021/04/01 01:51:53;;;;;;;;;;;;;;;18.71;61.65;101511.25;5108795;28;1720;-70
2021/04/01 01:54:19;;;;;;;;;;;;;;;18.72;61.44;101505.06;5109165;28;1148;-70
2021/04/01 01:56:45;;;;;;;;;;;;;;;18.72;61.74;101498.00;5108591;28;1334;-71
2021/04/01 01:59:11;;;;;;;;;;;;;;;18.70;61.48;101494.56;5109016;28;1051;-70
2021/04/01 02:01:37;;;;;;;;;;;;;;;18.69;61.38;101490.22;5109144;28;1233;-71
2021/04/01 02:04:04;;;;;;;;;;;;;;;18.69;61.52;101490.22;5112530;28;1162;-70
2021/04/01 02:06:31;;;;;;;;;;;;;;;18.68;61.39;101488.50;5094057;28;1977;-71
2021/04/01 02:08:58;;;;;;;;;;;;;;;18.68;61.28;101483.22;5112583;28;908;-71
2021/04/01 02:11:27;;;;;;;;;;;;;;;18.68;61.31;101475.31;5094343;28;1429;-72
2021/04/01 02:13:54;;;;;;;;;;;;;;;18.66;61.31;101471.91;5112355;28;1025;-71
2021/04/01 02:16:20;;;;;;;;;;;;;;;18.67;61.19;101460.38;5112705;28;1228;-72
2021/04/01 02:18:46;;;;;;;;;;;;;;;18.66;61.19;101458.69;5112271;28;1056;-72
2021/04/01 02:21:15;;;;;;;;;;;;;;;18.66;61.22;101456.06;5093493;28;1282;-72
2021/04/01 02:23:42;;;;;;;;;;;;;;;18.66;61.10;101456.06;5112067;28;1147;-70
2021/04/01 02:26:08;;;;;;;;;;;;;;;18.68;61.21;101448.06;5112351;28;1910;-71
2021/04/01 02:28:35;;;;;;;;;;;;;;;18.68;61.09;101451.56;5111839;28;1075;-71
2021/04/01 02:31:03;;;;;;;;;;;;;;;18.68;61.10;101440.13;5076908;28;1801;-70
2021/04/01 02:33:33;;;;;;;;;;;;;;;18.64;61.07;101436.78;5093425;28;1198;-71
2021/04/01 02:35:59;;;;;;;;;;;;;;;18.65;61.14;101429.72;5111636;28;1299;-71
2021/04/01 02:38:26;;;;;;;;;;;;;;;18.65;61.13;101427.94;5093174;28;1171;-70
2021/04/01 02:40:54;;;;;;;;;;;;;;;18.65;61.22;101419.16;5092997;28;1428;-71
2021/04/01 02:45:53;;;;;;;;;;;;;;;18.63;61.02;101395.50;5111334;28;1968;-72
2021/04/01 02:48:19;;;;;;;;;;;;;;;18.65;60.97;101391.00;5092917;28;1389;-71
2021/04/01 02:50:46;;;;;;;;;;;;;;;18.65;61.05;101392.78;5111415;28;1236;-71
2021/04/01 02:53:12;;;;;;;;;;;;;;;18.65;60.87;101379.59;5111885;28;1298;-70
2021/04/01 02:55:39;;;;;;;;;;;;;;;18.63;60.94;101384.09;5111577;28;940;-72
2021/04/01 02:58:05;;;;;;;;;;;;;;;18.63;60.82;101376.19;5092921;28;1422;-72
2021/04/01 03:00:33;;;;;;;;;;;;;;;18.62;60.90;101377.94;5111576;28;895;-72
2021/04/01 03:03:44;;;;;;;;;;;;;;;18.61;60.90;101370.94;5110095;28;1260;-71
2021/04/01 03:05:48;;;;;;;;;;;;;;;18.62;60.88;101361.25;5102752;28;1917;-72
2021/04/01 03:08:15;;;;;;;;;;;;;;;18.64;60.97;101365.53;5092714;28;1438;-71
2021/04/01 03:10:42;;;;;;;;;;;;;;;18.64;60.93;101354.97;5092840;28;1294;-72
2021/04/01 03:13:08;;;;;;;;;;;;;;;18.64;60.95;101352.34;5093043;28;1251;-72
2021/04/01 03:15:41;;;;;;;;;;;;;;;18.62;60.92;101362.13;5111946;28;933;-72
2021/04/01 03:18:07;;;;;;;;;;;;;;;18.62;60.85;101351.56;5076115;28;1252;-72
2021/04/01 03:20:33;;;;;;;;;;;;;;;18.62;60.89;101351.56;5111477;28;1243;-71
2021/04/01 03:22:59;;;;;;;;;;;;;;;18.62;60.58;101359.47;5092833;28;1459;-72
2021/04/01 03:25:26;;;;;;;;;;;;;;;18.63;60.84;101361.19;5093155;28;1909;-71
2021/04/01 03:27:56;;;;;;;;;;;;;;;18.63;60.75;101355.94;5093035;28;1748;-71
2021/04/01 03:30:22;;;;;;;;;;;;;;;18.62;60.98;101359.47;5093069;28;1230;-71
2021/04/01 03:32:48;;;;;;;;;;;;;;;18.59;60.72;101354.34;5111030;28;1236;-70
2021/04/01 03:35:19;;;;;;;;;;;;;;;18.59;60.75;101351.72;5110482;28;990;-69
2021/04/01 03:37:48;;;;;;;;;;;;;;;18.60;60.58;101348.16;5092208;28;1371;-70
2021/04/01 03:40:14;;;;;;;;;;;;;;;18.61;60.64;101343.69;5110646;28;1127;-70
2021/04/01 03:42:41;;;;;;;;;;;;;;;18.59;60.70;101341.16;5110700;28;1215;-72
2021/04/01 03:45:09;;;;;;;;;;;;;;;18.61;60.64;101344.56;5092139;28;1191;-71
2021/04/01 03:47:39;;;;;;;;;;;;;;;18.60;60.58;101340.25;5110052;28;1910;-72
2021/04/01 03:50:06;;;;;;;;;;;;;;;18.60;60.66;101347.28;5110580;28;1181;-71
2021/04/01 03:52:33;;;;;;;;;;;;;;;18.59;60.66;101348.22;5110429;28;1690;-72
2021/04/01 03:55:09;;;;;;;;;;;;;;;18.59;60.77;101350.84;5110392;28;1042;-71
2021/04/01 03:57:36;;;;;;;;;;;;;;;18.58;60.74;101351.75;5110352;28;1287;-72
2021/04/01 04:00:14;;;;;;;;;;;;;;;18.57;60.70;101345.66;5091757;28;1414;-72
2021/04/01 04:13:30;;;;;;;;;;;;;;;18.56;60.65;101338.66;5091432;28;1398;-71
2021/04/01 04:15:54;;;;;;;;;;;;;;;18.58;60.70;101341.22;5109457;28;1289;-72
2021/04/01 04:18:26;;;;;;;;;;;;;;;18.56;60.65;101338.66;5109929;28;974;-72
2021/04/01 04:20:52;;;;;;;;;;;;;;;18.55;60.71;101331.66;5109854;28;1071;-71
2021/04/01 04:23:19;;;;;;;;;;;;;;;18.55;60.56;101344.84;5109422;28;1357;-72
2021/04/01 04:25:45;;;;;;;;;;;;;;;18.55;60.69;101344.84;5109072;28;1968;-73
2021/04/01 04:28:18;;;;;;;;;;;;;;;18.54;60.63;101353.72;5109780;28;1212;-72
2021/04/01 04:30:44;;;;;;;;;;;;;;;18.54;60.64;101359.00;5109996;28;999;-74
2021/04/01 04:33:11;;;;;;;;;;;;;;;18.56;60.58;101354.50;5109495;28;1319;-74
2021/04/01 04:35:37;;;;;;;;;;;;;;;18.58;60.59;101365.81;5091314;28;1428;-73
2021/04/01 04:38:04;;;;;;;;;;;;;;;18.55;60.61;101355.41;5109337;28;1324;-73
2021/04/01 04:40:30;;;;;;;;;;;;;;;18.54;60.57;101356.34;5110023;28;1185;-73
2021/04/01 04:42:56;;;;;;;;;;;;;;;18.53;60.66;101354.63;5074337;28;1306;-73
2021/04/01 04:45:22;;;;;;;;;;;;;;;18.53;60.77;101357.28;5109783;28;1189;-73
2021/04/01 04:47:49;;;;;;;;;;;;;;;18.53;60.52;101354.63;5108480;28;1918;-73
2021/04/01 04:50:16;;;;;;;;;;;;;;;18.50;60.75;101353.00;5074212;28;1281;-73
2021/04/01 04:52:42;;;;;;;;;;;;;;;18.51;60.70;101352.06;5109671;28;1571;-73
2021/04/01 04:55:10;;;;;;;;;;;;;;;18.51;60.78;101343.31;5108857;28;1087;-73
2021/04/01 04:57:53;;;;;;;;;;;;;;;18.53;60.58;101346.72;5109170;28;1224;-74
2021/04/01 05:05:54;;;;;;;;;;;;;;;18.52;60.92;101345.00;5109261;28;1973;-73
2021/04/01 05:08:20;;;;;;;;;;;;;;;18.50;61.06;101353.00;5109076;28;1288;-73
2021/04/01 05:10:48;;;;;;;;;;;;;;;18.53;61.25;101357.28;5109226;28;1095;-72
2021/04/01 05:13:15;;;;;;;;;;;;;;;18.52;61.30;101350.28;5109112;28;1238;-72
2021/04/01 05:15:46;;;;;;;;;;;;;;;18.50;61.76;101347.72;5109047;28;868;-72
2021/04/01 05:18:31;;;;;;;;;;;;;;;18.49;61.67;101348.63;5109003;28;1354;-72
2021/04/01 05:20:58;;;;;;;;;;;;;;;18.54;61.83;101348.44;5108924;28;1235;-72
2021/04/01 05:24:00;;;;;;;;;;;;;;;18.51;61.64;101345.94;5090753;28;1032;-71
2021/04/01 05:28:58;;;;;;;;;;;;;;;18.53;61.44;101338.81;5109033;28;1190;-71
2021/04/01 05:31:26;;;;;;;;;;;;;;;18.50;61.63;101333.66;5108972;28;1252;-70
2021/04/01 05:33:53;;;;;;;;;;;;;;;18.52;61.53;101340.59;5090796;28;1198;-72
2021/04/01 05:36:26;;;;;;;;;;;;;;;18.53;61.48;101330.88;5090412;28;1240;-74
2021/04/01 05:38:53;;;;;;;;;;;;;;;18.52;61.64;101334.44;5093780;28;1261;-72
2021/04/01 05:41:23;;;;;;;;;;;;;;;18.51;61.58;101333.59;5094225;28;1410;-72
2021/04/01 05:43:56;;;;;;;;;;;;;;;18.53;61.37;101328.25;5112881;28;1056;-72
2021/04/01 05:46:29;;;;;;;;;;;;;;;18.52;61.38;101329.16;5094231;28;1913;-73
2021/04/01 05:49:10;;;;;;;;;;;;;;;18.50;61.13;101323.13;5094291;28;1268;-72
2021/04/01 06:02:32;;;;;;;;;;;;;;;18.50;61.20;101350.34;5093820;28;1228;-73
2021/04/01 06:05:02;;;;;;;;;;;;;;;18.49;61.15;101348.63;5112138;28;1266;-73
2021/04/01 06:07:31;;;;;;;;;;;;;;;18.49;61.13;101350.41;5112308;28;1981;-73
2021/04/01 06:09:59;;;;;;;;;;;;;;;18.48;61.14;101353.97;5093704;28;1333;-74
2021/04/01 06:12:30;;;;;;;;;;;;;;;18.49;61.00;101360.97;5093559;28;1421;-73
2021/04/01 06:15:07;;;;;;;;;;;;;;;18.47;61.07;101361.03;5094025;28;1100;-73
2021/04/01 06:17:34;;;;;;;;;;;;;;;18.49;61.18;101363.59;5111967;28;1287;-73
2021/04/01 06:20:03;;;;;;;;;;;;;;;18.50;61.14;101360.91;5112163;28;1081;-73
2021/04/01 06:22:29;;;;;;;;;;;;;;;18.47;61.31;101358.38;5111851;28;1220;-74
2021/04/01 06:24:56;;;;;;;;;;;;;;;18.48;61.13;101348.69;5093511;28;1450;-73
2021/04/01 06:27:34;;;;;;;;;;;;;;;18.47;60.97;101347.84;5093280;28;1914;-73
2021/04/01 06:30:20;;;;;;;;;;;;;;;18.46;61.02;101351.38;5112191;28;1055;-73
2021/04/01 06:33:04;;;;;;;;;;;;;;;18.48;61.13;101341.59;5111793;28;1250;-74
2021/04/01 06:35:33;;;;;;;;;;;;;;;18.45;61.18;101343.56;5093777;28;1201;-75
2021/04/01 06:40:37;;;;;;;;;;;;;;;18.47;61.09;101352.25;5111558;28;910;-74
2021/04/01 06:43:12;;;;;;;;;;;;;;;18.48;60.97;101356.59;5092496;28;1572;-73
2021/04/01 06:45:42;;;;;;;;;;;;;;;18.46;61.11;101361.06;5093006;28;953;-74
2021/04/01 06:48:09;;;;;;;;;;;;;;;18.47;61.09;101363.66;5110702;28;1224;-73
2021/04/01 06:50:37;;;;;;;;;;;;;;;18.45;61.31;101364.66;5075989;28;1242;-74
2021/04/01 06:56:17;;;;;;;;;;;;;;;18.46;61.18;101369.84;5092452;28;1436;-74
2021/04/01 06:59:18;;;;;;;;;;;;;;;18.47;61.21;101370.72;5092560;28;1195;-73
2021/04/01 07:04:34;;;;;;;;;;;;;;;18.46;61.25;101369.00;5092103;28;1228;-74
2021/04/01 07:07:11;;;;;;;;;;;;;;;18.45;61.19;101368.13;5110434;28;1914;-74
2021/04/01 07:10:13;;;;;;;;;;;;;;;18.46;61.35;101371.63;5093162;28;1072;-74
2021/04/01 07:12:30;;;;;;;;;;;;;;;18.45;61.38;101377.84;5092314;28;1361;-74
2021/04/01 07:15:00;;;;;;;;;;;;;;;18.45;61.43;101375.22;5092479;28;1024;-74
2021/04/01 07:17:38;;;;;;;;;;;;;;;18.49;61.50;101376.78;5110433;28;1232;-75
2021/04/01 07:47:20;;;;;;;;;;;;;;;18.49;61.56;101382.06;5091770;28;1913;-76
2021/04/01 07:49:48;;;;;;;;;;;;;;;18.49;62.02;101393.47;5109909;28;1139;-73
2021/04/01 07:52:17;;;;;;;;;;;;;;;18.55;62.14;101398.47;5109669;28;1322;-73
2021/04/01 07:58:52;;;;;;;;;;;;;;;18.60;62.21;101398.28;5090545;28;1433;-69
2021/04/01 08:00:31;;;;;;;;;;;;;;;18.70;63.12;101396.91;5073457;28;1447;-70
2021/04/01 08:05:35;;;;;;;;;;;;;;;18.63;61.25;101397.28;5106120;28;1291;-68
2021/04/01 08:08:04;;;;;;;;;;;;;;;18.62;61.36;101404.34;5107261;28;1914;-70
2021/04/01 08:10:40;;;;;;;;;;;;;;;18.67;61.71;101402.34;5107479;28;1244;-72
2021/04/01 08:13:09;;;;;;;;;;;;;;;18.62;61.27;101392.91;5104986;28;1355;-71
2021/04/01 08:15:39;;;;;;;;;;;;;;;18.58;61.38;101392.19;5089474;28;1214;-73
2021/04/01 08:20:36;;;;;;;;;;;;;;;18.58;62.13;101397.47;5106942;28;1200;-74
2021/04/01 08:23:34;;;;;;;;;;;;;;;18.66;61.50;101399.78;5106181;28;1280;-73
2021/04/01 08:26:26;;;;;;;;;;;;;;;18.70;61.21;101406.59;5105886;28;1906;-74
2021/04/01 08:35:29;;;;;;;;;;;;;;;18.75;62.22;101426.59;5094080;28;1149;-71
2021/04/01 08:38:16;;;;;;;;;;;;;;;18.79;62.84;101417.59;5106294;28;1462;-78
2021/04/01 08:41:11;;;;;;;;;;;;;;;18.79;62.85;101417.59;5106077;28;1258;-75
2021/04/01 08:44:10;;;;;;;;;;;;;;;18.74;61.55;101409.06;5092740;28;1140;-76
2021/04/01 08:47:09;;;;;;;;;;;;;;;18.68;62.39;101411.97;5089078;28;1991;-75
2021/04/01 08:49:59;;;;;;;;;;;;;;;18.78;63.52;101409.78;5106315;28;1960;-69
2021/04/01 08:52:48;;;;;;;;;;;;;;;18.78;63.24;101405.34;5089066;28;1719;-74
2021/04/01 08:55:18;;;;;;;;;;;;;;;18.77;62.13;101402.75;5089302;28;1327;-71
2021/04/01 08:58:03;;;;;;;;;;;;;;;18.73;62.32;101407.31;5107587;28;1358;-70
2021/04/01 09:00:31;;;;;;;;;;;;;;;18.73;62.91;101398.56;5089468;28;1257;-75
2021/04/01 09:02:58;;;;;;;;;;;;;;;18.85;63.49;101408.53;5088772;28;1709;-70
2021/04/01 09:05:24;;;;;;;;;;;;;;;18.91;64.14;101409.09;5089262;28;1201;-72
2021/04/01 09:07:59;;;;;;;;;;;;;;;18.85;64.12;101406.75;5106048;28;1972;-70
2021/04/01 09:10:41;;;;;;;;;;;;;;;18.88;65.42;101401.31;5107535;28;1102;-71
2021/04/01 09:13:18;;;;;;;;;;;;;;;18.85;65.38;101401.47;5092178;28;1426;-71
2021/04/01 09:18:21;;;;;;;;;;;;;;;18.75;62.42;101394.94;5111593;28;1197;-70
2021/04/01 09:20:51;;;;;;;;;;;;;;;18.71;62.98;101398.63;5093073;28;833;-70
2021/04/01 09:23:33;;;;;;;;;;;;;;;18.69;62.90;101395.22;5106150;27;1529;-71
2021/04/01 09:26:01;;;;;;;;;;;;;;;18.69;63.07;101386.44;5097743;28;1975;-69
2021/04/01 09:28:31;;;;;;;;;;;;;;;18.71;62.69;101390.72;5056099;28;1317;-72
2021/04/01 09:31:02;;;;;;;;;;;;;;;18.72;62.85;101388.94;5073084;28;1435;-73
2021/04/01 09:33:30;;;;;;;;;;;;;;;18.70;62.75;101373.16;5086393;28;975;-72
2021/04/01 09:36:23;;;;;;;;;;;;;;;18.70;62.62;101375.81;5090701;28;1311;-71
2021/04/01 09:38:54;;;;;;;;;;;;;;;18.74;63.07;101381.78;5097971;28;1588;-73
2021/04/01 09:41:30;;;;;;;;;;;;;;;18.76;63.81;101382.56;5108754;28;1291;-71
2021/04/01 09:44:05;;;;;;;;;;;;;;;18.74;62.93;101371.25;5110268;28;1117;-72
2021/04/01 09:46:31;;;;;;;;;;;;;;;18.72;62.82;101371.31;5092250;28;1990;-73
2021/04/01 09:49:10;;;;;;;;;;;;;;;18.72;62.66;101370.47;5110770;28;1123;-72
2021/04/01 09:51:40;;;;;;;;;;;;;;;18.72;62.66;101367.81;5110555;28;1511;-72
2021/04/01 09:54:15;;;;;;;;;;;;;;;18.70;62.72;101373.16;5092804;28;1107;-72
2021/04/01 09:56:41;;;;;;;;;;;;;;;18.71;62.70;101372.25;5110953;28;1235;-71
2021/04/01 09:59:18;;;;;;;;;;;;;;;18.68;62.82;101366.25;5110635;28;1327;-71
2021/04/01 10:01:45;;;;;;;;;;;;;;;18.71;63.07;101377.53;5111152;28;1279;-73
2021/04/01 10:04:17;;;;;;;;;;;;;;;18.71;63.22;101377.53;5111391;28;1073;-72
2021/04/01 10:06:50;;;;;;;;;;;;;;;18.69;63.47;101374.09;5110943;28;1979;-71
2021/04/01 10:09:17;;;;;;;;;;;;;;;18.70;63.88;101370.53;5110710;28;1058;-74
2021/04/01 10:11:53;;;;;;;;;;;;;;;18.70;64.04;101367.88;5092392;28;1358;-73
2021/04/01 10:14:19;;;;;;;;;;;;;;;18.71;64.19;101366.97;5075330;28;1485;-74
2021/04/01 10:16:48;;;;;;;;;;;;;;;18.70;64.37;101362.59;5092313;28;1259;-74
2021/04/01 10:19:15;;;;;;;;;;;;;;;18.70;64.40;101354.69;5075081;28;2155;-73
2021/04/01 10:21:45;;;;;;;;;;;;;;;18.70;64.47;101354.69;5110731;28;1224;-72
2021/04/01 10:24:25;;;;;;;;;;;;;;;18.65;64.42;101335.59;5073946;28;1851;-79
2021/04/01 10:27:17;;;;;;;;;;;;;;;18.70;64.50;101352.06;5110614;28;1980;-73
2021/04/01 10:32:15;;;;;;;;;;;;;;;18.72;64.62;101354.63;5079142;28;1338;-74
2021/04/01 10:35:01;;;;;;;;;;;;;;;18.72;64.59;101352.84;5076842;28;1237;-73
2021/04/01 10:37:30;;;;;;;;;;;;;;;18.71;64.81;101347.63;5071810;28;1426;-75
2021/04/01 10:39:58;;;;;;;;;;;;;;;18.65;64.68;101338.22;5089771;28;723;-74
2021/04/01 10:42:25;;;;;;;;;;;;;;;18.72;64.84;101352.00;5090629;28;1354;-74
2021/04/01 10:44:57;;;;;;;;;;;;;;;18.72;64.80;101347.56;5089958;28;869;-77
2021/04/01 10:47:29;;;;;;;;;;;;;;;18.71;64.88;101334.44;5071246;28;1941;-77
2021/04/01 10:49:58;;;;;;;;;;;;;;;18.73;64.85;101324.66;5071967;28;1088;-76
2021/04/01 10:52:31;;;;;;;;;;;;;;;18.72;64.79;101331.75;5084044;28;1318;-79
2021/04/01 10:54:58;;;;;;;;;;;;;;;18.73;64.77;101322.00;5090647;28;1100;-76
2021/04/01 10:57:29;;;;;;;;;;;;;;;18.72;64.56;101318.53;5091014;28;1275;-79
2021/04/01 10:59:58;;;;;;;;;;;;;;;18.73;64.34;101308.81;5092260;28;1224;-77
2021/04/01 11:02:31;;;;;;;;;;;;;;;18.71;64.33;101301.00;5092043;28;1272;-79
2021/04/01 11:05:03;;;;;;;;;;;;;;;18.78;64.21;101301.56;5110949;28;802;-76
2021/04/01 11:07:34;;;;;;;;;;;;;;;18.78;63.82;101304.19;5110133;28;1971;-76
2021/04/01 11:10:04;;;;;;;;;;;;;;;18.77;63.71;101307.75;5109268;28;730;-75
2021/04/01 11:12:32;;;;;;;;;;;;;;;18.81;63.98;101304.91;5109522;28;1219;-76
2021/04/01 11:15:07;;;;;;;;;;;;;;;18.84;63.96;101307.41;5091191;28;1314;-71
2021/04/01 11:17:36;;;;;;;;;;;;;;;18.86;63.99;101305.53;5090632;28;1374;-77
2021/04/01 11:20:06;;;;;;;;;;;;;;;18.80;63.38;101303.19;5090564;28;1242;-77
2021/04/01 11:22:32;;;;;;;;;;;;;;;18.77;63.37;101305.97;5091323;28;1323;-78
2021/04/01 11:25:12;;;;;;;;;;;;;;;18.76;63.23;101301.63;5090977;28;1231;-77
2021/04/01 11:28:01;;;;;;;;;;;;;;;18.76;63.19;101306.03;5090924;28;2001;-77
2021/04/01 11:30:48;;;;;;;;;;;;;;;18.74;63.23;101303.47;5109431;28;1039;-77
2021/04/01 11:33:16;;;;;;;;;;;;;;;18.76;63.33;101291.06;5109771;28;1263;-76
2021/04/01 11:35:58;;;;;;;;;;;;;;;18.76;63.21;101301.63;5074216;28;1344;-74
2021/04/01 11:38:25;;;;;;;;;;;;;;;18.75;63.26;101292.00;5090852;28;1371;-76
2021/04/01 11:41:00;;;;;;;;;;;;;;;18.75;63.44;101297.28;5090305;28;1248;-75
2021/04/01 11:43:31;;;;;;;;;;;;;;;18.76;63.33;101290.19;5109319;28;1217;-77
2021/04/01 11:45:58;;;;;;;;;;;;;;;18.76;63.20;101291.06;5109222;28;1111;-76
2021/04/01 11:48:30;;;;;;;;;;;;;;;18.76;63.10;101284.91;5108915;28;1909;-74
2021/04/01 11:50:59;;;;;;;;;;;;;;;18.75;63.09;101284.09;5108778;28;1314;-76
2021/04/01 11:53:25;;;;;;;;;;;;;;;18.84;62.62;101280.13;5109129;28;1328;-72
2021/04/01 11:55:53;;;;;;;;;;;;;;;18.99;62.86;101276.75;5089194;28;1658;-74
2021/04/01 11:58:22;;;;;;;;;;;;;;;18.93;62.92;101277.91;5068702;28;1752;-73
2021/04/01 12:01:01;;;;;;;;;;;;;;;18.87;63.09;101275.56;5098046;28;992;-76
2021/04/01 12:03:51;;;;;;;;;;;;;;;18.84;63.22;101274.88;5070308;28;859;-75
2021/04/01 12:06:18;;;;;;;;;;;;;;;18.85;63.16;101269.50;5075206;28;1909;-75
2021/04/01 12:08:44;;;;;;;;;;;;;;;18.85;63.42;101268.63;5093278;28;1095;-74
2021/04/01 12:11:10;;;;;;;;;;;;;;;18.93;63.89;101271.78;5068983;28;1301;-76
2021/04/01 12:13:40;;;;;;;;;;;;;;;18.94;64.77;101274.31;5086840;28;795;-80
2021/04/01 12:16:21;;;;;;;;;;;;;;;18.94;64.36;101262.91;5072125;28;1762;-81
2021/04/01 12:18:50;;;;;;;;;;;;;;;19.02;64.39;101268.69;5089705;28;1129;-78
2021/04/01 12:21:18;;;;;;;;;;;;;;;19.05;64.26;101256.19;5109038;28;1307;-71
2021/04/01 12:23:52;;;;;;;;;;;;;;;19.05;64.35;101256.19;5107623;28;1311;-72
2021/04/01 12:26:19;;;;;;;;;;;;;;;19.02;64.35;101256.34;5107443;28;1910;-74
2021/04/01 12:29:14;;;;;;;;;;;;;;;19.01;64.02;101262.53;5107723;28;1139;-73
2021/04/01 12:31:42;;;;;;;;;;;;;;;19.03;64.42;101247.47;5086859;28;1310;-76
2021/04/01 12:34:13;;;;;;;;;;;;;;;19.02;64.31;101251.06;5108318;28;1157;-72
2021/04/01 12:37:02;;;;;;;;;;;;;;;18.97;64.43;101245.13;5092685;28;1534;-76
2021/04/01 12:39:49;;;;;;;;;;;;;;;19.06;64.43;101251.72;5081284;28;984;-80
2021/04/01 12:42:37;;;;;;;;;;;;;;;19.04;64.64;101253.59;5072756;28;1385;-81
2021/04/01 12:45:13;;;;;;;;;;;;;;;19.04;64.82;101238.63;5069971;28;1660;-71
2021/04/01 12:47:39;;;;;;;;;;;;;;;19.05;64.70;101244.75;5096588;28;1990;-78
2021/04/01 12:50:09;;;;;;;;;;;;;;;19.06;64.91;101239.38;5090862;28;1280;-78
2021/04/01 12:52:43;;;;;;;;;;;;;;;19.06;64.97;101236.75;5109237;28;1428;-81
2021/04/01 12:55:25;;;;;;;;;;;;;;;19.08;65.10;101244.59;5063622;28;1563;-78
2021/04/01 12:58:04;;;;;;;;;;;;;;;19.12;65.58;101240.03;5068641;28;1315;-72
2021/04/01 13:00:47;;;;;;;;;;;;;;;19.14;65.35;101238.16;5087203;28;864;-77
2021/04/01 13:03:15;;;;;;;;;;;;;;;19.17;67.22;101233.56;5052568;28;1564;-76
2021/04/01 13:05:46;;;;;;;;;;;;;;;19.23;66.14;101229.75;5087321;28;787;-70
2021/04/01 13:10:58;;;;;;;;;;;;;;;19.20;66.33;101225.50;5090896;28;1503;-71
2021/04/01 13:13:28;;;;;;;;;;;;;;;19.19;67.10;101231.69;5093211;28;897;-72
2021/04/01 13:15:54;;;;;;;;;;;;;;;19.18;67.45;101221.22;5086336;28;1019;-73
2021/04/01 13:18:21;;;;;;;;;;;;;;;19.17;67.75;101211.59;5068248;28;1308;-71
2021/04/01 13:20:47;;;;;;;;;;;;;;;19.17;67.81;101208.94;5086444;28;1091;-73
2021/04/01 13:26:00;;;;;;;;;;;;;;;19.26;67.27;101217.25;5107140;28;1279;-74
2021/04/01 13:28:26;;;;;;;;;;;;;;;19.33;67.64;101202.78;5106702;28;1913;-67
2021/04/01 13:30:59;;;;;;;;;;;;;;;19.49;69.45;101201.06;5088408;28;1492;-70
2021/04/01 13:36:36;;;;;;;;;;;;;;;19.47;68.69;101199.47;5096334;28;1255;-77
2021/04/01 13:39:05;;;;;;;;;;;;;;;19.39;67.15;101196.34;5107047;28;881;-77
2021/04/01 13:42:02;;;;;;;;;;;;;;;19.47;69.88;101195.03;5088631;28;1228;-67
2021/04/01 13:44:21;;;;;;;;;;;;;;;19.50;67.54;101188.72;5105577;28;1407;-68
2021/04/01 13:46:49;;;;;;;;;;;;;;;19.53;68.13;101200.00;5106436;28;1922;-67
2021/04/01 13:49:21;;;;;;;;;;;;;;;19.56;68.60;101198.97;5106752;28;1031;-65
2021/04/01 13:51:50;;;;;;;;;;;;;;;19.59;70.43;101201.44;5071052;28;1590;-68
2021/04/01 13:54:26;;;;;;;;;;;;;;;19.59;67.89;101191.75;5106380;28;1034;-71
2021/04/01 14:00:06;;;;;;;;;;;;;;;19.66;68.49;101183.47;5036992;28;1206;-69
2021/04/01 14:11:07;;;;;;;;;;;;;;;19.56;68.60;101140.84;5091763;28;1397;-73
2021/04/01 14:13:34;;;;;;;;;;;;;;;19.56;67.54;101130.25;5091965;28;1452;-74
2021/04/01 14:16:03;;;;;;;;;;;;;;;19.51;67.57;101130.53;5091808;28;1472;-69
2021/04/01 14:18:31;;;;;;;;;;;;;;;19.54;67.51;101150.66;5109968;27;1245;-68
2021/04/01 14:21:03;;;;;;;;;;;;;;;19.52;67.48;101137.50;5086935;28;1410;-67
2021/04/01 14:23:39;;;;;;;;;;;;;;;19.49;67.51;101124.44;5109251;28;1292;-69
2021/04/01 14:28:38;;;;;;;;;;;;;;;19.49;67.84;101120.94;5112458;27;1906;-68
2021/04/01 14:31:05;;;;;;;;;;;;;;;19.49;67.26;101118.31;5109146;28;1394;-72
2021/04/01 14:33:36;;;;;;;;;;;;;;;19.49;67.03;101120.94;5108748;28;1209;-70
2021/04/01 14:36:19;;;;;;;;;;;;;;;19.49;67.55;101118.31;5109485;28;1378;-66
2021/04/01 14:38:48;;;;;;;;;;;;;;;19.48;67.22;101111.34;5093099;28;1102;-72
2021/04/01 14:44:04;;;;;;;;;;;;;;;19.49;67.09;101102.47;5091230;28;1348;-72
2021/04/01 14:46:31;;;;;;;;;;;;;;;19.48;67.27;101106.06;5089834;28;1252;-73
2021/04/01 14:49:03;;;;;;;;;;;;;;;19.49;67.97;101099.81;5106672;28;1359;-73
2021/04/01 14:51:30;;;;;;;;;;;;;;;19.49;67.96;101102.47;5089056;28;1476;-72
2021/04/01 14:54:01;;;;;;;;;;;;;;;19.48;67.42;101096.34;5086672;27;1335;-70
2021/04/01 14:56:35;;;;;;;;;;;;;;;19.49;67.30;101098.03;5088442;28;1429;-73
2021/04/01 14:59:12;;;;;;;;;;;;;;;19.49;67.10;101100.66;5089145;28;1237;-76
2021/04/01 15:01:58;;;;;;;;;;;;;;;19.51;66.80;101095.31;5075716;28;1367;-71